sensor_id;sensor_type;location;lat;lon;timestamp;P1;durP1;ratioP1;P2;durP2;ratioP2
45136;SDS011;30894;51.740;19.498;2023-09-19T01:04:22;12.93;;;6.95;;
45136;SDS011;30894;51.740;19.498;2023-09-19T02:05:39;15.30;;;7.72;;
45136;SDS011;30894;51.740;19.498;2023-09-19T03:28:33;14.40;;;8.35;;
45136;SDS011;30894;51.740;19.498;2023-09-19T04:05:21;17.83;;;9.40;;
45136;SDS011;30894;51.740;19.498;2023-09-19T04:58:08;20.58;;;10.30;;
45136;SDS011;30894;51.740;19.498;2023-09-19T05:01:38;15.50;;;9.50;;
45136;SDS011;30894;51.740;19.498;2023-09-19T05:05:52;15.45;;;9.77;;
45136;SDS011;30894;51.740;19.498;2023-09-19T05:13:12;19.45;;;9.82;;
45136;SDS011;30894;51.740;19.498;2023-09-19T05:19:11;24.70;;;9.73;;
45136;SDS011;30894;51.740;19.498;2023-09-19T05:29:41;16.60;;;9.98;;
45136;SDS011;30894;51.740;19.498;2023-09-19T05:52:47;16.90;;;8.13;;
45136;SDS011;30894;51.740;19.498;2023-09-19T05:56:45;14.82;;;8.23;;
45136;SDS011;30894;51.740;19.498;2023-09-19T06:22:50;14.30;;;6.95;;
45136;SDS011;30894;51.740;19.498;2023-09-19T06:26:17;11.85;;;7.38;;
45136;SDS011;30894;51.740;19.498;2023-09-19T06:29:38;15.25;;;7.57;;
45136;SDS011;30894;51.740;19.498;2023-09-19T06:32:57;11.35;;;6.70;;
45136;SDS011;30894;51.740;19.498;2023-09-19T06:36:33;16.85;;;7.57;;
45136;SDS011;30894;51.740;19.498;2023-09-19T06:43:44;14.02;;;6.68;;
45136;SDS011;30894;51.740;19.498;2023-09-19T06:47:44;11.40;;;6.18;;
45136;SDS011;30894;51.740;19.498;2023-09-19T06:54:19;12.95;;;7.22;;
45136;SDS011;30894;51.740;19.498;2023-09-19T06:57:57;14.10;;;6.78;;
45136;SDS011;30894;51.740;19.498;2023-09-19T07:01:17;13.85;;;7.50;;
45136;SDS011;30894;51.740;19.498;2023-09-19T07:07:21;13.85;;;6.53;;
45136;SDS011;30894;51.740;19.498;2023-09-19T07:12:27;11.55;;;5.95;;
45136;SDS011;30894;51.740;19.498;2023-09-19T07:15:06;8.88;;;5.63;;
45136;SDS011;30894;51.740;19.498;2023-09-19T07:17:35;11.45;;;6.32;;
45136;SDS011;30894;51.740;19.498;2023-09-19T07:20:11;9.02;;;5.20;;
45136;SDS011;30894;51.740;19.498;2023-09-19T07:22:40;8.77;;;5.20;;
45136;SDS011;30894;51.740;19.498;2023-09-19T07:25:08;10.25;;;5.75;;
45136;SDS011;30894;51.740;19.498;2023-09-19T07:32:50;7.40;;;4.72;;
45136;SDS011;30894;51.740;19.498;2023-09-19T07:45:01;7.97;;;3.72;;
45136;SDS011;30894;51.740;19.498;2023-09-19T07:48:22;5.90;;;3.42;;
45136;SDS011;30894;51.740;19.498;2023-09-19T07:54:15;5.30;;;2.95;;
45136;SDS011;30894;51.740;19.498;2023-09-19T07:57:03;5.78;;;3.00;;
45136;SDS011;30894;51.740;19.498;2023-09-19T08:07:26;5.68;;;2.95;;
45136;SDS011;30894;51.740;19.498;2023-09-19T08:12:34;4.72;;;2.35;;
45136;SDS011;30894;51.740;19.498;2023-09-19T08:14:59;5.40;;;3.30;;
45136;SDS011;30894;51.740;19.498;2023-09-19T08:17:33;6.47;;;2.97;;
45136;SDS011;30894;51.740;19.498;2023-09-19T08:19:54;5.47;;;3.10;;
45136;SDS011;30894;51.740;19.498;2023-09-19T08:44:22;6.43;;;3.00;;
45136;SDS011;30894;51.740;19.498;2023-09-19T08:51:18;6.57;;;3.20;;
45136;SDS011;30894;51.740;19.498;2023-09-19T08:55:02;7.28;;;3.10;;
45136;SDS011;30894;51.740;19.498;2023-09-19T09:02:12;4.30;;;2.88;;
45136;SDS011;30894;51.740;19.498;2023-09-19T09:05:36;5.65;;;3.35;;
45136;SDS011;30894;51.740;19.498;2023-09-19T09:11:39;4.90;;;3.17;;
45136;SDS011;30894;51.740;19.498;2023-09-19T09:18:58;6.40;;;3.60;;
45136;SDS011;30894;51.740;19.498;2023-09-19T09:22:06;6.28;;;4.10;;
45136;SDS011;30894;51.740;19.498;2023-09-19T09:24:51;5.03;;;3.60;;
45136;SDS011;30894;51.740;19.498;2023-09-19T09:29:57;7.18;;;4.25;;
45136;SDS011;30894;51.740;19.498;2023-09-19T09:32:43;8.25;;;4.53;;
45136;SDS011;30894;51.740;19.498;2023-09-19T09:37:58;6.82;;;4.80;;
45136;SDS011;30894;51.740;19.498;2023-09-19T09:42:52;5.57;;;4.68;;
45136;SDS011;30894;51.740;19.498;2023-09-19T09:45:35;9.10;;;4.80;;
45136;SDS011;30894;51.740;19.498;2023-09-19T09:49:04;9.80;;;5.20;;
45136;SDS011;30894;51.740;19.498;2023-09-19T09:51:33;6.63;;;4.70;;
45136;SDS011;30894;51.740;19.498;2023-09-19T10:02:56;5.40;;;3.78;;
45136;SDS011;30894;51.740;19.498;2023-09-19T10:07:05;7.90;;;4.80;;
45136;SDS011;30894;51.740;19.498;2023-09-19T10:10:51;7.10;;;4.57;;
45136;SDS011;30894;51.740;19.498;2023-09-19T10:13:26;12.95;;;4.43;;
45136;SDS011;30894;51.740;19.498;2023-09-19T10:16:51;10.05;;;4.80;;
45136;SDS011;30894;51.740;19.498;2023-09-19T10:20:26;7.45;;;4.32;;
45136;SDS011;30894;51.740;19.498;2023-09-19T10:33:17;6.90;;;4.47;;
45136;SDS011;30894;51.740;19.498;2023-09-19T10:40:56;7.28;;;4.25;;
45136;SDS011;30894;51.740;19.498;2023-09-19T10:51:16;5.60;;;4.57;;
45136;SDS011;30894;51.740;19.498;2023-09-19T10:54:36;6.25;;;4.28;;
45136;SDS011;30894;51.740;19.498;2023-09-19T11:04:44;7.32;;;5.00;;
45136;SDS011;30894;51.740;19.498;2023-09-19T11:15:01;8.05;;;5.40;;
45136;SDS011;30894;51.740;19.498;2023-09-19T11:17:42;6.78;;;4.80;;
45136;SDS011;30894;51.740;19.498;2023-09-19T11:30:52;7.53;;;4.53;;
45136;SDS011;30894;51.740;19.498;2023-09-19T11:41:38;8.05;;;4.70;;
45136;SDS011;30894;51.740;19.498;2023-09-19T11:49:26;9.88;;;5.03;;
45136;SDS011;30894;51.740;19.498;2023-09-19T11:52:04;7.43;;;5.20;;
45136;SDS011;30894;51.740;19.498;2023-09-19T11:54:31;5.30;;;4.13;;
45136;SDS011;30894;51.740;19.498;2023-09-19T11:56:58;7.47;;;4.00;;
45136;SDS011;30894;51.740;19.498;2023-09-19T11:59:32;4.85;;;4.35;;
45136;SDS011;30894;51.740;19.498;2023-09-19T12:02:05;4.47;;;4.07;;
45136;SDS011;30894;51.740;19.498;2023-09-19T12:04:34;8.75;;;4.10;;
45136;SDS011;30894;51.740;19.498;2023-09-19T12:07:13;7.32;;;4.22;;
45136;SDS011;30894;51.740;19.498;2023-09-19T12:12:10;4.63;;;3.65;;
45136;SDS011;30894;51.740;19.498;2023-09-19T12:14:50;7.35;;;3.22;;
45136;SDS011;30894;51.740;19.498;2023-09-19T12:17:17;6.68;;;3.03;;
45136;SDS011;30894;51.740;19.498;2023-09-19T12:19:51;4.55;;;3.53;;
45136;SDS011;30894;51.740;19.498;2023-09-19T12:22:21;4.07;;;3.30;;
45136;SDS011;30894;51.740;19.498;2023-09-19T12:24:48;7.65;;;3.40;;
45136;SDS011;30894;51.740;19.498;2023-09-19T12:27:16;7.07;;;3.20;;
45136;SDS011;30894;51.740;19.498;2023-09-19T12:29:46;6.45;;;2.75;;
45136;SDS011;30894;51.740;19.498;2023-09-19T12:32:36;5.35;;;3.05;;
45136;SDS011;30894;51.740;19.498;2023-09-19T12:35:06;4.28;;;3.03;;
45136;SDS011;30894;51.740;19.498;2023-09-19T12:37:44;3.38;;;2.40;;
45136;SDS011;30894;51.740;19.498;2023-09-19T12:40:13;4.75;;;2.70;;
45136;SDS011;30894;51.740;19.498;2023-09-19T12:42:43;3.33;;;2.03;;
45136;SDS011;30894;51.740;19.498;2023-09-19T12:45:11;4.88;;;2.03;;
45136;SDS011;30894;51.740;19.498;2023-09-19T12:48:17;2.63;;;2.03;;
45136;SDS011;30894;51.740;19.498;2023-09-19T12:51:09;4.55;;;2.05;;
45136;SDS011;30894;51.740;19.498;2023-09-19T12:56:17;5.18;;;1.65;;
45136;SDS011;30894;51.740;19.498;2023-09-19T12:58:57;3.83;;;1.88;;
45136;SDS011;30894;51.740;19.498;2023-09-19T13:01:26;2.55;;;1.67;;
45136;SDS011;30894;51.740;19.498;2023-09-19T13:06:38;3.20;;;1.80;;
45136;SDS011;30894;51.740;19.498;2023-09-19T13:09:13;3.78;;;1.52;;
45136;SDS011;30894;51.740;19.498;2023-09-19T13:11:40;2.05;;;1.60;;
45136;SDS011;30894;51.740;19.498;2023-09-19T13:14:17;1.80;;;1.45;;
45136;SDS011;30894;51.740;19.498;2023-09-19T13:17:04;5.65;;;1.70;;
45136;SDS011;30894;51.740;19.498;2023-09-19T13:19:48;6.65;;;1.58;;
45136;SDS011;30894;51.740;19.498;2023-09-19T13:25:12;2.20;;;1.42;;
45136;SDS011;30894;51.740;19.498;2023-09-19T13:27:44;2.85;;;1.50;;
45136;SDS011;30894;51.740;19.498;2023-09-19T13:30:20;4.75;;;1.42;;
45136;SDS011;30894;51.740;19.498;2023-09-19T13:32:51;2.47;;;1.52;;
45136;SDS011;30894;51.740;19.498;2023-09-19T13:35:29;1.88;;;1.10;;
45136;SDS011;30894;51.740;19.498;2023-09-19T13:37:55;3.17;;;1.48;;
45136;SDS011;30894;51.740;19.498;2023-09-19T13:40:24;1.17;;;1.00;;
45136;SDS011;30894;51.740;19.498;2023-09-19T13:42:58;2.50;;;1.52;;
45136;SDS011;30894;51.740;19.498;2023-09-19T13:45:24;5.70;;;1.27;;
45136;SDS011;30894;51.740;19.498;2023-09-19T13:47:52;3.20;;;1.23;;
45136;SDS011;30894;51.740;19.498;2023-09-19T13:50:19;3.20;;;1.15;;
45136;SDS011;30894;51.740;19.498;2023-09-19T13:52:50;5.50;;;1.65;;
45136;SDS011;30894;51.740;19.498;2023-09-19T13:55:22;1.58;;;0.95;;
45136;SDS011;30894;51.740;19.498;2023-09-19T13:57:52;2.25;;;1.25;;
45136;SDS011;30894;51.740;19.498;2023-09-19T14:00:21;1.60;;;1.02;;
45136;SDS011;30894;51.740;19.498;2023-09-19T14:02:48;1.95;;;1.30;;
45136;SDS011;30894;51.740;19.498;2023-09-19T14:05:16;3.78;;;1.20;;
45136;SDS011;30894;51.740;19.498;2023-09-19T14:07:48;2.10;;;1.05;;
45136;SDS011;30894;51.740;19.498;2023-09-19T14:10:14;2.55;;;0.93;;
45136;SDS011;30894;51.740;19.498;2023-09-19T14:12:42;2.75;;;1.10;;
45136;SDS011;30894;51.740;19.498;2023-09-19T14:15:20;2.78;;;1.00;;
45136;SDS011;30894;51.740;19.498;2023-09-19T14:17:58;2.70;;;1.05;;
45136;SDS011;30894;51.740;19.498;2023-09-19T14:20:25;1.10;;;0.90;;
45136;SDS011;30894;51.740;19.498;2023-09-19T14:22:56;2.38;;;1.08;;
45136;SDS011;30894;51.740;19.498;2023-09-19T14:25:24;1.42;;;0.90;;
45136;SDS011;30894;51.740;19.498;2023-09-19T14:27:51;1.60;;;1.00;;
45136;SDS011;30894;51.740;19.498;2023-09-19T14:30:17;1.77;;;1.23;;
45136;SDS011;30894;51.740;19.498;2023-09-19T14:32:44;2.70;;;1.00;;
45136;SDS011;30894;51.740;19.498;2023-09-19T14:35:11;1.33;;;0.93;;
45136;SDS011;30894;51.740;19.498;2023-09-19T14:37:39;4.60;;;0.93;;
45136;SDS011;30894;51.740;19.498;2023-09-19T14:40:06;4.10;;;1.08;;
45136;SDS011;30894;51.740;19.498;2023-09-19T14:42:38;1.42;;;1.00;;
45136;SDS011;30894;51.740;19.498;2023-09-19T14:45:05;1.15;;;0.98;;
45136;SDS011;30894;51.740;19.498;2023-09-19T14:47:32;3.50;;;1.20;;
45136;SDS011;30894;51.740;19.498;2023-09-19T14:50:00;3.88;;;1.23;;
45136;SDS011;30894;51.740;19.498;2023-09-19T14:52:47;2.97;;;0.90;;
45136;SDS011;30894;51.740;19.498;2023-09-19T14:55:16;1.75;;;1.00;;
45136;SDS011;30894;51.740;19.498;2023-09-19T14:57:44;1.98;;;1.08;;
45136;SDS011;30894;51.740;19.498;2023-09-19T15:00:16;1.52;;;0.90;;
45136;SDS011;30894;51.740;19.498;2023-09-19T15:02:57;2.22;;;0.88;;
45136;SDS011;30894;51.740;19.498;2023-09-19T15:05:23;1.50;;;1.00;;
45136;SDS011;30894;51.740;19.498;2023-09-19T15:07:50;1.60;;;0.95;;
45136;SDS011;30894;51.740;19.498;2023-09-19T15:10:16;3.30;;;1.40;;
45136;SDS011;30894;51.740;19.498;2023-09-19T15:13:17;2.33;;;1.40;;
45136;SDS011;30894;51.740;19.498;2023-09-19T15:15:43;3.72;;;1.30;;
45136;SDS011;30894;51.740;19.498;2023-09-19T15:18:15;1.48;;;1.00;;
45136;SDS011;30894;51.740;19.498;2023-09-19T15:20:47;1.75;;;1.15;;
45136;SDS011;30894;51.740;19.498;2023-09-19T15:23:13;1.67;;;1.10;;
45136;SDS011;30894;51.740;19.498;2023-09-19T15:25:47;3.00;;;1.00;;
45136;SDS011;30894;51.740;19.498;2023-09-19T15:28:15;1.35;;;1.00;;
45136;SDS011;30894;51.740;19.498;2023-09-19T15:31:01;3.28;;;1.20;;
45136;SDS011;30894;51.740;19.498;2023-09-19T15:33:36;5.45;;;1.30;;
45136;SDS011;30894;51.740;19.498;2023-09-19T15:36:15;2.53;;;1.45;;
45136;SDS011;30894;51.740;19.498;2023-09-19T15:38:57;2.53;;;1.20;;
45136;SDS011;30894;51.740;19.498;2023-09-19T15:41:32;4.97;;;1.40;;
45136;SDS011;30894;51.740;19.498;2023-09-19T15:44:01;1.30;;;1.15;;
45136;SDS011;30894;51.740;19.498;2023-09-19T15:46:29;2.17;;;1.00;;
45136;SDS011;30894;51.740;19.498;2023-09-19T15:48:57;3.40;;;1.20;;
45136;SDS011;30894;51.740;19.498;2023-09-19T15:51:23;3.03;;;1.40;;
45136;SDS011;30894;51.740;19.498;2023-09-19T15:53:51;3.50;;;1.10;;
45136;SDS011;30894;51.740;19.498;2023-09-19T15:56:19;1.10;;;1.00;;
45136;SDS011;30894;51.740;19.498;2023-09-19T15:58:53;3.35;;;1.10;;
45136;SDS011;30894;51.740;19.498;2023-09-19T16:01:21;1.38;;;1.00;;
45136;SDS011;30894;51.740;19.498;2023-09-19T16:03:52;1.85;;;1.20;;
45136;SDS011;30894;51.740;19.498;2023-09-19T16:08:54;1.55;;;1.10;;
45136;SDS011;30894;51.740;19.498;2023-09-19T16:11:25;3.20;;;1.40;;
45136;SDS011;30894;51.740;19.498;2023-09-19T16:13:53;1.67;;;1.15;;
45136;SDS011;30894;51.740;19.498;2023-09-19T16:16:20;6.15;;;1.17;;
45136;SDS011;30894;51.740;19.498;2023-09-19T16:18:53;3.63;;;1.30;;
45136;SDS011;30894;51.740;19.498;2023-09-19T16:23:54;4.50;;;1.40;;
45136;SDS011;30894;51.740;19.498;2023-09-19T16:26:23;5.63;;;1.50;;
45136;SDS011;30894;51.740;19.498;2023-09-19T16:28:52;3.38;;;1.42;;
45136;SDS011;30894;51.740;19.498;2023-09-19T16:31:21;2.63;;;1.30;;
45136;SDS011;30894;51.740;19.498;2023-09-19T16:33:47;2.17;;;1.30;;
45136;SDS011;30894;51.740;19.498;2023-09-19T16:36:15;2.42;;;1.02;;
45136;SDS011;30894;51.740;19.498;2023-09-19T16:38:44;4.07;;;1.20;;
45136;SDS011;30894;51.740;19.498;2023-09-19T16:41:16;3.65;;;1.30;;
45136;SDS011;30894;51.740;19.498;2023-09-19T16:43:47;2.00;;;1.17;;
45136;SDS011;30894;51.740;19.498;2023-09-19T16:46:14;3.20;;;1.42;;
45136;SDS011;30894;51.740;19.498;2023-09-19T16:48:42;2.22;;;1.20;;
45136;SDS011;30894;51.740;19.498;2023-09-19T16:51:16;3.80;;;1.15;;
45136;SDS011;30894;51.740;19.498;2023-09-19T16:53:43;1.95;;;1.30;;
45136;SDS011;30894;51.740;19.498;2023-09-19T16:56:17;2.15;;;1.30;;
45136;SDS011;30894;51.740;19.498;2023-09-19T16:58:45;2.00;;;1.27;;
45136;SDS011;30894;51.740;19.498;2023-09-19T17:01:15;3.00;;;1.55;;
45136;SDS011;30894;51.740;19.498;2023-09-19T17:03:47;3.15;;;1.50;;
45136;SDS011;30894;51.740;19.498;2023-09-19T17:06:17;3.22;;;1.48;;
45136;SDS011;30894;51.740;19.498;2023-09-19T17:08:51;5.15;;;1.58;;
45136;SDS011;30894;51.740;19.498;2023-09-19T17:11:19;2.40;;;1.80;;
45136;SDS011;30894;51.740;19.498;2023-09-19T17:14:04;1.83;;;1.27;;
45136;SDS011;30894;51.740;19.498;2023-09-19T17:16:36;1.85;;;1.55;;
45136;SDS011;30894;51.740;19.498;2023-09-19T17:19:31;4.63;;;2.00;;
45136;SDS011;30894;51.740;19.498;2023-09-19T17:22:23;4.75;;;1.75;;
45136;SDS011;30894;51.740;19.498;2023-09-19T17:25:12;12.15;;;5.90;;
45136;SDS011;30894;51.740;19.498;2023-09-19T17:27:50;20.52;;;8.48;;
45136;SDS011;30894;51.740;19.498;2023-09-19T17:34:08;25.90;;;11.07;;
45136;SDS011;30894;51.740;19.498;2023-09-19T17:41:05;24.30;;;10.73;;
45136;SDS011;30894;51.740;19.498;2023-09-19T18:01:28;17.65;;;6.20;;
45136;SDS011;30894;51.740;19.498;2023-09-19T18:11:21;5.88;;;2.88;;
45136;SDS011;30894;51.740;19.498;2023-09-19T18:14:53;5.90;;;2.50;;
45136;SDS011;30894;51.740;19.498;2023-09-19T18:18:26;6.43;;;3.08;;
45136;SDS011;30894;51.740;19.498;2023-09-19T18:23:55;4.22;;;2.50;;
45136;SDS011;30894;51.740;19.498;2023-09-19T18:33:08;6.38;;;3.33;;
45136;SDS011;30894;51.740;19.498;2023-09-19T18:40:46;7.15;;;3.30;;
45136;SDS011;30894;51.740;19.498;2023-09-19T18:47:52;3.60;;;2.97;;
45136;SDS011;30894;51.740;19.498;2023-09-19T18:58:08;9.90;;;3.88;;
45136;SDS011;30894;51.740;19.498;2023-09-19T19:04:45;4.83;;;2.80;;
45136;SDS011;30894;51.740;19.498;2023-09-19T19:11:08;11.20;;;3.83;;
45136;SDS011;30894;51.740;19.498;2023-09-19T19:17:35;7.25;;;3.65;;
45136;SDS011;30894;51.740;19.498;2023-09-19T19:33:53;9.85;;;4.47;;
45136;SDS011;30894;51.740;19.498;2023-09-19T19:37:50;11.90;;;4.60;;
45136;SDS011;30894;51.740;19.498;2023-09-19T19:41:29;8.00;;;3.55;;
45136;SDS011;30894;51.740;19.498;2023-09-19T19:47:14;9.13;;;4.00;;
45136;SDS011;30894;51.740;19.498;2023-09-19T19:50:49;8.90;;;4.25;;
45136;SDS011;30894;51.740;19.498;2023-09-19T19:56:55;10.05;;;4.70;;
45136;SDS011;30894;51.740;19.498;2023-09-19T20:00:00;10.40;;;4.68;;
45136;SDS011;30894;51.740;19.498;2023-09-19T20:03:17;15.60;;;7.35;;
45136;SDS011;30894;51.740;19.498;2023-09-19T20:10:16;8.27;;;4.60;;
45136;SDS011;30894;51.740;19.498;2023-09-19T20:13:35;9.57;;;5.22;;
45136;SDS011;30894;51.740;19.498;2023-09-19T20:17:02;8.77;;;4.55;;
45136;SDS011;30894;51.740;19.498;2023-09-19T20:20:48;7.95;;;4.30;;
45136;SDS011;30894;51.740;19.498;2023-09-19T20:24:14;7.55;;;4.18;;
45136;SDS011;30894;51.740;19.498;2023-09-19T20:27:40;8.27;;;4.13;;
45136;SDS011;30894;51.740;19.498;2023-09-19T20:33:35;8.38;;;4.10;;
45136;SDS011;30894;51.740;19.498;2023-09-19T20:38:57;7.65;;;4.40;;
45136;SDS011;30894;51.740;19.498;2023-09-19T20:44:58;7.50;;;4.15;;
45136;SDS011;30894;51.740;19.498;2023-09-19T20:48:18;7.63;;;4.28;;
45136;SDS011;30894;51.740;19.498;2023-09-19T20:51:42;7.57;;;3.78;;
45136;SDS011;30894;51.740;19.498;2023-09-19T20:54:57;7.05;;;3.72;;
45136;SDS011;30894;51.740;19.498;2023-09-19T21:06:58;4.75;;;3.15;;
45136;SDS011;30894;51.740;19.498;2023-09-19T21:10:13;5.57;;;2.97;;
45136;SDS011;30894;51.740;19.498;2023-09-19T21:29:05;6.88;;;3.10;;
45136;SDS011;30894;51.740;19.498;2023-09-19T21:32:46;4.95;;;3.05;;
45136;SDS011;30894;51.740;19.498;2023-09-19T21:36:07;6.28;;;2.80;;
45136;SDS011;30894;51.740;19.498;2023-09-19T21:39:05;6.97;;;3.25;;
45136;SDS011;30894;51.740;19.498;2023-09-19T21:45:45;6.30;;;3.20;;
45136;SDS011;30894;51.740;19.498;2023-09-19T21:51:44;6.53;;;3.13;;
45136;SDS011;30894;51.740;19.498;2023-09-19T21:55:02;5.05;;;3.25;;
45136;SDS011;30894;51.740;19.498;2023-09-19T22:03:11;6.38;;;3.78;;
45136;SDS011;30894;51.740;19.498;2023-09-19T22:08:12;5.15;;;3.35;;
45136;SDS011;30894;51.740;19.498;2023-09-19T22:13:13;5.53;;;3.33;;
45136;SDS011;30894;51.740;19.498;2023-09-19T22:18:36;6.50;;;3.47;;
45136;SDS011;30894;51.740;19.498;2023-09-19T22:29:37;5.20;;;3.05;;
45136;SDS011;30894;51.740;19.498;2023-09-19T22:37:46;5.03;;;3.25;;
45136;SDS011;30894;51.740;19.498;2023-09-19T22:40:38;4.97;;;3.40;;
45136;SDS011;30894;51.740;19.498;2023-09-19T22:48:39;7.32;;;3.85;;
45136;SDS011;30894;51.740;19.498;2023-09-19T22:51:21;8.95;;;3.70;;
45136;SDS011;30894;51.740;19.498;2023-09-19T22:54:11;7.95;;;3.63;;
45136;SDS011;30894;51.740;19.498;2023-09-19T23:02:17;10.80;;;3.38;;
45136;SDS011;30894;51.740;19.498;2023-09-19T23:07:47;5.78;;;2.70;;
45136;SDS011;30894;51.740;19.498;2023-09-19T23:10:40;6.38;;;3.05;;
45136;SDS011;30894;51.740;19.498;2023-09-19T23:16:13;8.88;;;3.30;;
45136;SDS011;30894;51.740;19.498;2023-09-19T23:24:33;10.57;;;3.60;;
45136;SDS011;30894;51.740;19.498;2023-09-19T23:38:02;6.88;;;3.08;;
45136;SDS011;30894;51.740;19.498;2023-09-19T23:40:50;5.25;;;3.22;;
45136;SDS011;30894;51.740;19.498;2023-09-19T23:43:44;4.90;;;2.95;;
45136;SDS011;30894;51.740;19.498;2023-09-19T23:46:18;6.97;;;3.33;;
45136;SDS011;30894;51.740;19.498;2023-09-19T23:48:51;6.40;;;2.92;;
45136;SDS011;30894;51.740;19.498;2023-09-19T23:53:59;7.68;;;3.05;;
45136;SDS011;30894;51.740;19.498;2023-09-19T23:56:40;8.60;;;3.13;;
45136;SDS011;30894;51.740;19.498;2023-09-19T23:59:14;6.68;;;3.50;;
